SPPAC EPLS-EPLU
Flight info
| Callsign | SPPAC |
|---|---|
| Flight time | 0h 14m |
| Altitude | 11000 |
| Route | EPLSS |
| Aircraft | P750/L-SDGRY/S |
Departure
| Time | 2026-04-20 19:27 |
|---|---|
| Airport | Leszno-Strzyzewice Airfield (EPLS) |
Arrival
| Time | 2026-04-20 19:41 |
|---|---|
| Airport | Lubin Airfield (EPLU) |
| Time | Latitude | Longitude | Altitude | Speed | Heading |
|---|---|---|---|---|---|
| 2026-04-20 19:17 | 51.83235 | 16.53136 | 311 ft | 0 kts | 165° |
| 2026-04-20 19:19 | 51.83268 | 16.53187 | 310 ft | 7 kts | 258° |
| 2026-04-20 19:19 | 51.83265 | 16.53163 | 310 ft | 3 kts | 265° |
| 2026-04-20 19:20 | 51.83302 | 16.53075 | 310 ft | 20 kts | 338° |
| 2026-04-20 19:20 | 51.83437 | 16.53027 | 305 ft | 21 kts | 347° |
| 2026-04-20 19:20 | 51.83545 | 16.52956 | 302 ft | 0 kts | 325° |
| 2026-04-20 19:26 | 51.83575 | 16.52895 | 300 ft | 16 kts | 291° |
| 2026-04-20 19:26 | 51.83536 | 16.52736 | 303 ft | 21 kts | 234° |
| 2026-04-20 19:26 | 51.83258 | 16.52112 | 334 ft | 102 kts | 234° |
| 2026-04-20 19:26 | 51.82829 | 16.51144 | 730 ft | 109 kts | 231° |
| 2026-04-20 19:27 | 51.82137 | 16.51079 | 1050 ft | 120 kts | 135° |
| 2026-04-20 19:27 | 51.81527 | 16.52063 | 1133 ft | 124 kts | 148° |
| 2026-04-20 19:27 | 51.80706 | 16.52324 | 1244 ft | 123 kts | 183° |
| 2026-04-20 19:27 | 51.79826 | 16.52302 | 1289 ft | 128 kts | 181° |
| 2026-04-20 19:28 | 51.78942 | 16.52317 | 1432 ft | 123 kts | 182° |
| 2026-04-20 19:28 | 51.78335 | 16.51725 | 1416 ft | 119 kts | 286° |
| 2026-04-20 19:28 | 51.77975 | 16.50810 | 1378 ft | 126 kts | 182° |
| 2026-04-20 19:28 | 51.77136 | 16.51270 | 1463 ft | 121 kts | 151° |
| 2026-04-20 19:29 | 51.76508 | 16.52083 | 1743 ft | 106 kts | 132° |
| 2026-04-20 19:29 | 51.75877 | 16.52757 | 1840 ft | 112 kts | 175° |
| 2026-04-20 19:29 | 51.75095 | 16.52647 | 1913 ft | 120 kts | 194° |
| 2026-04-20 19:29 | 51.74304 | 16.51997 | 1781 ft | 135 kts | 211° |
| 2026-04-20 19:30 | 51.73464 | 16.51261 | 1778 ft | 133 kts | 210° |
| 2026-04-20 19:30 | 51.72692 | 16.50524 | 1905 ft | 128 kts | 213° |
| 2026-04-20 19:30 | 51.71928 | 16.49733 | 1929 ft | 131 kts | 213° |
| 2026-04-20 19:30 | 51.71161 | 16.48953 | 2007 ft | 129 kts | 214° |
| 2026-04-20 19:31 | 51.70405 | 16.48150 | 2050 ft | 131 kts | 216° |
| 2026-04-20 19:31 | 51.69652 | 16.47330 | 2109 ft | 130 kts | 214° |
| 2026-04-20 19:31 | 51.68886 | 16.46548 | 2170 ft | 130 kts | 214° |
| 2026-04-20 19:31 | 51.68122 | 16.45755 | 2233 ft | 130 kts | 214° |
| 2026-04-20 19:32 | 51.67362 | 16.44954 | 2294 ft | 131 kts | 215° |
| 2026-04-20 19:32 | 51.66600 | 16.44153 | 2347 ft | 131 kts | 214° |
| 2026-04-20 19:32 | 51.65835 | 16.43361 | 2400 ft | 131 kts | 215° |
| 2026-04-20 19:32 | 51.65077 | 16.42541 | 2457 ft | 131 kts | 215° |
| 2026-04-20 19:33 | 51.64322 | 16.41720 | 2509 ft | 131 kts | 215° |
| 2026-04-20 19:33 | 51.63565 | 16.40919 | 2539 ft | 133 kts | 214° |
| 2026-04-20 19:33 | 51.62784 | 16.40129 | 2595 ft | 132 kts | 213° |
| 2026-04-20 19:33 | 51.62001 | 16.39366 | 2672 ft | 131 kts | 212° |
| 2026-04-20 19:34 | 51.61228 | 16.38587 | 2728 ft | 132 kts | 214° |
| 2026-04-20 19:34 | 51.60464 | 16.37777 | 2765 ft | 132 kts | 215° |
| 2026-04-20 19:34 | 51.59706 | 16.36950 | 2820 ft | 131 kts | 215° |
| 2026-04-20 19:34 | 51.58941 | 16.36135 | 2868 ft | 132 kts | 214° |
| 2026-04-20 19:35 | 51.58172 | 16.35334 | 2930 ft | 131 kts | 215° |
| 2026-04-20 19:35 | 51.57430 | 16.34474 | 2970 ft | 132 kts | 219° |
| 2026-04-20 19:35 | 51.56676 | 16.33607 | 2955 ft | 135 kts | 216° |
| 2026-04-20 19:35 | 51.55902 | 16.32759 | 3001 ft | 134 kts | 215° |
| 2026-04-20 19:36 | 51.55118 | 16.31914 | 2962 ft | 138 kts | 215° |
| 2026-04-20 19:36 | 51.54315 | 16.31069 | 2968 ft | 137 kts | 214° |
| 2026-04-20 19:36 | 51.53525 | 16.30266 | 3043 ft | 133 kts | 213° |
| 2026-04-20 19:36 | 51.52728 | 16.29463 | 3022 ft | 136 kts | 213° |
| 2026-04-20 19:37 | 51.51941 | 16.28683 | 3101 ft | 132 kts | 213° |
| 2026-04-20 19:37 | 51.51152 | 16.27917 | 3114 ft | 133 kts | 212° |
| 2026-04-20 19:37 | 51.50345 | 16.27155 | 3126 ft | 134 kts | 211° |
| 2026-04-20 19:37 | 51.49540 | 16.26434 | 3129 ft | 136 kts | 210° |
| 2026-04-20 19:38 | 51.48717 | 16.25672 | 3135 ft | 135 kts | 212° |
| 2026-04-20 19:38 | 51.47900 | 16.24925 | 3167 ft | 133 kts | 211° |
| 2026-04-20 19:38 | 51.47092 | 16.24189 | 3171 ft | 135 kts | 210° |
| 2026-04-20 19:38 | 51.46245 | 16.23457 | 3091 ft | 141 kts | 210° |
| 2026-04-20 19:39 | 51.45393 | 16.22698 | 2829 ft | 137 kts | 211° |
| 2026-04-20 19:39 | 51.44628 | 16.22018 | 2140 ft | 101 kts | 210° |
| 2026-04-20 19:39 | 51.43941 | 16.21448 | 1357 ft | 120 kts | 208° |
| 2026-04-20 19:39 | 51.43195 | 16.21103 | 1088 ft | 109 kts | 170° |
| 2026-04-20 19:40 | 51.42581 | 16.21782 | 897 ft | 108 kts | 134° |
| 2026-04-20 19:40 | 51.41984 | 16.22132 | 819 ft | 94 kts | 204° |
| 2026-04-20 19:40 | 51.41549 | 16.21386 | 765 ft | 92 kts | 257° |
| 2026-04-20 19:40 | 51.41804 | 16.20525 | 587 ft | 89 kts | 313° |
| 2026-04-20 19:41 | 51.42177 | 16.19847 | 518 ft | 58 kts | 310° |
| 2026-04-20 19:41 | 51.42301 | 16.19613 | 518 ft | 24 kts | 310° |
| 2026-04-20 19:41 | 51.42417 | 16.19395 | 516 ft | 25 kts | 310° |
| 2026-04-20 19:41 | 51.42491 | 16.19352 | 516 ft | 10 kts | 51° |
| 2026-04-20 19:42 | 51.42570 | 16.19407 | 516 ft | 15 kts | 351° |
| 2026-04-20 19:42 | 51.42632 | 16.19428 | 516 ft | 10 kts | 288° |
| 2026-04-20 19:42 | 51.42624 | 16.19406 | 516 ft | 0 kts | 184° |